Time;durP1;ratioP1;P1;durP2;ratioP2;P2;SDS_P1;SDS_P2;PMS_P1;PMS_P2;Temp;Humidity;BMP_temperature;BMP_pressure;BME280_temperature;BME280_humidity;BME280_pressure;Samples;Min_cycle;Max_cycle;Signal;HPM_P1;HPM_P2
2024/01/24 00:01:36;;;;;;;9.45;8.30;;;;;;;19.69;37.76;102744.16;5021679;28;20055;-59
2024/01/24 00:04:04;;;;;;;12.25;9.15;;;;;;;19.68;37.51;102737.91;5026929;28;20046;-59
2024/01/24 00:06:31;;;;;;;10.63;8.68;;;;;;;19.67;37.46;102736.19;5029381;28;20034;-59
2024/01/24 00:08:58;;;;;;;10.63;9.20;;;;;;;19.66;37.57;102723.72;5022765;28;20056;-59
2024/01/24 00:11:26;;;;;;;10.60;8.52;;;;;;;19.67;37.71;102728.13;5030477;28;20041;-60
2024/01/24 00:13:53;;;;;;;12.55;9.00;;;;;;;19.66;37.26;102730.91;5017709;28;20050;-60
2024/01/24 00:16:20;;;;;;;9.77;8.77;;;;;;;19.65;37.48;102731.88;5022606;28;20037;-60
2024/01/24 00:18:48;;;;;;;10.10;9.07;;;;;;;19.64;37.48;102738.16;5016993;28;20415;-59
2024/01/24 00:21:15;;;;;;;10.48;9.05;;;;;;;19.63;37.52;102734.63;5030286;28;20049;-59
2024/01/24 00:23:43;;;;;;;9.88;8.88;;;;;;;19.62;37.42;102738.28;5024613;28;20050;-59
2024/01/24 00:26:10;;;;;;;11.68;8.90;;;;;;;19.61;37.50;102736.53;5021696;28;20049;-59
2024/01/24 00:28:37;;;;;;;10.43;9.35;;;;;;;19.61;37.52;102739.22;5017658;28;20049;-59
2024/01/24 00:31:05;;;;;;;10.32;9.25;;;;;;;19.60;37.36;102734.75;5029670;28;20049;-59
2024/01/24 00:33:33;;;;;;;10.02;8.77;;;;;;;19.59;37.52;102741.09;5024285;28;20056;-59
2024/01/24 00:36:00;;;;;;;9.40;8.40;;;;;;;19.59;37.52;102742.91;5022239;28;20496;-58
2024/01/24 00:38:28;;;;;;;9.48;8.48;;;;;;;19.59;37.43;102737.53;5026833;28;20060;-59
2024/01/24 00:40:55;;;;;;;9.65;8.23;;;;;;;19.58;37.39;102739.38;5022142;28;20045;-59
2024/01/24 00:43:23;;;;;;;9.90;8.57;;;;;;;19.57;37.40;102745.69;5025845;28;20531;-58
2024/01/24 00:45:50;;;;;;;9.70;8.73;;;;;;;19.56;37.38;102749.31;5028673;28;20212;-59
2024/01/24 00:48:18;;;;;;;10.55;9.23;;;;;;;19.56;37.44;102735.88;5016696;28;20045;-59
2024/01/24 00:50:45;;;;;;;10.05;9.07;;;;;;;19.56;37.32;102724.28;5029565;28;20046;-59
2024/01/24 00:53:15;;;;;;;10.27;8.90;;;;;;;19.55;37.31;102714.50;5024402;28;20052;-59
2024/01/24 00:55:43;;;;;;;9.57;8.35;;;;;;;19.53;37.43;102709.22;5021814;28;20117;-59
2024/01/24 00:58:13;;;;;;;10.00;8.93;;;;;;;19.52;37.38;102696.72;5026856;28;20042;-59
2024/01/24 01:00:40;;;;;;;10.18;9.05;;;;;;;19.54;37.38;102707.38;5011992;28;20075;-59
2024/01/24 01:03:08;;;;;;;9.80;8.15;;;;;;;19.52;37.25;102710.16;5017912;28;20046;-59
2024/01/24 01:05:37;;;;;;;10.30;8.77;;;;;;;19.52;37.36;102723.56;5018253;28;20054;-60
2024/01/24 01:08:05;;;;;;;10.63;8.88;;;;;;;19.52;37.27;102704.78;5021917;28;20048;-59
2024/01/24 01:10:33;;;;;;;9.55;8.02;;;;;;;19.51;37.28;102703.06;5018304;28;20053;-60
2024/01/24 01:13:01;;;;;;;10.20;8.82;;;;;;;19.50;37.29;102706.69;5018205;28;20205;-60
2024/01/24 01:15:28;;;;;;;9.55;8.55;;;;;;;19.49;37.20;102696.91;5028966;28;20045;-60
2024/01/24 01:17:55;;;;;;;10.02;8.35;;;;;;;19.49;37.27;102697.78;5021490;28;20037;-59
2024/01/24 01:20:23;;;;;;;11.05;8.80;;;;;;;19.47;37.39;102694.28;5018336;28;20416;-58
2024/01/24 01:22:50;;;;;;;9.80;8.57;;;;;;;19.47;37.16;102691.59;5017543;28;20046;-59
2024/01/24 01:25:17;;;;;;;9.10;8.20;;;;;;;19.47;37.21;102682.69;5018506;28;20054;-59
2024/01/24 01:27:45;;;;;;;10.23;8.65;;;;;;;19.47;37.06;102677.31;5021055;28;20046;-59
2024/01/24 01:30:12;;;;;;;9.02;7.78;;;;;;;19.46;37.23;102672.91;5020473;28;20065;-59
2024/01/24 01:32:40;;;;;;;9.20;8.30;;;;;;;19.44;37.22;102675.66;5021328;28;20061;-59
2024/01/24 01:35:08;;;;;;;9.77;8.77;;;;;;;19.46;37.13;102686.34;5021522;28;20052;-59
2024/01/24 01:37:38;;;;;;;9.18;8.23;;;;;;;19.45;37.35;102704.28;5031077;28;20518;-59
2024/01/24 01:40:06;;;;;;;9.10;8.15;;;;;;;19.44;37.20;102707.88;5021210;28;20042;-59
2024/01/24 01:42:34;;;;;;;9.52;8.52;;;;;;;19.44;37.17;102693.59;5021459;28;20049;-60
2024/01/24 01:45:03;;;;;;;9.25;8.13;;;;;;;19.44;37.35;102704.34;5022351;28;20056;-59
2024/01/24 01:47:33;;;;;;;9.15;7.93;;;;;;;19.43;37.16;102706.16;5025102;28;20045;-59
2024/01/24 01:50:01;;;;;;;9.82;8.45;;;;;;;19.43;37.12;102705.31;5021802;28;20050;-59
2024/01/24 01:52:30;;;;;;;9.35;8.35;;;;;;;19.42;37.24;102690.16;5021111;28;20050;-60
2024/01/24 01:54:57;;;;;;;9.23;8.32;;;;;;;19.42;37.17;102699.06;5022992;28;20046;-59
2024/01/24 01:57:25;;;;;;;9.32;8.32;;;;;;;19.41;37.12;102696.50;5024749;28;20045;-59
2024/01/24 01:59:53;;;;;;;9.05;8.15;;;;;;;19.41;37.33;102688.44;5014982;28;20042;-59
2024/01/24 02:02:20;;;;;;;8.82;7.93;;;;;;;19.39;37.14;102680.44;5014948;28;20057;-59
2024/01/24 02:04:48;;;;;;;8.73;7.82;;;;;;;19.40;37.33;102675.94;5028592;28;20060;-59
2024/01/24 02:07:15;;;;;;;10.15;8.13;;;;;;;19.40;37.36;102675.94;5019068;28;20496;-59
2024/01/24 02:09:44;;;;;;;10.23;7.78;;;;;;;19.39;37.19;102656.25;5034776;28;20045;-60
2024/01/24 02:12:11;;;;;;;9.95;8.45;;;;;;;19.38;37.30;102657.22;5029781;28;20439;-59
2024/01/24 02:14:39;;;;;;;9.63;8.43;;;;;;;19.40;37.03;102667.88;5030132;28;20403;-60
2024/01/24 02:17:06;;;;;;;8.93;7.90;;;;;;;19.40;37.26;102657.13;5014996;28;20038;-60
2024/01/24 02:19:33;;;;;;;9.93;7.80;;;;;;;19.39;37.16;102636.59;5020250;28;20094;-59
2024/01/24 02:22:01;;;;;;;10.07;8.05;;;;;;;19.39;37.28;102625.84;5026004;28;20042;-59
2024/01/24 02:24:29;;;;;;;8.98;8.05;;;;;;;19.39;37.17;102623.19;5030809;28;20057;-59
2024/01/24 02:26:56;;;;;;;9.20;8.18;;;;;;;19.39;37.08;102634.78;5026484;28;20049;-59
2024/01/24 02:29:24;;;;;;;9.77;8.65;;;;;;;19.39;37.13;102637.47;5030159;28;20065;-59
2024/01/24 02:31:51;;;;;;;8.82;7.57;;;;;;;19.39;37.16;102644.66;5020753;28;20053;-59
2024/01/24 02:34:18;;;;;;;9.90;7.70;;;;;;;19.39;37.16;102637.47;5030691;28;20803;-59
2024/01/24 02:36:46;;;;;;;9.52;8.52;;;;;;;19.37;37.26;102630.47;5031691;28;20046;-59
2024/01/24 02:39:13;;;;;;;8.65;7.45;;;;;;;19.37;37.07;102631.34;5019541;28;20053;-59
2024/01/24 02:41:41;;;;;;;8.07;7.15;;;;;;;19.37;37.13;102625.97;5028244;28;20045;-59
2024/01/24 02:44:08;;;;;;;9.75;7.97;;;;;;;19.37;37.17;102620.59;5016740;28;20042;-59
2024/01/24 02:46:35;;;;;;;8.52;7.40;;;;;;;19.37;37.09;102630.47;5024773;28;20389;-60
2024/01/24 02:49:03;;;;;;;9.55;7.47;;;;;;;19.35;37.19;102633.22;5025295;28;20060;-59
2024/01/24 02:51:30;;;;;;;9.23;8.23;;;;;;;19.36;37.01;102628.72;5019767;28;20042;-59
2024/01/24 02:53:58;;;;;;;8.63;7.57;;;;;;;19.36;37.12;102636.78;5031994;28;20045;-59
2024/01/24 02:56:26;;;;;;;8.35;7.25;;;;;;;19.35;37.09;102633.22;5023584;28;20491;-59
2024/01/24 02:58:53;;;;;;;8.30;7.38;;;;;;;19.35;37.17;102637.72;5029610;28;20041;-59
2024/01/24 03:01:21;;;;;;;9.65;8.65;;;;;;;19.34;37.10;102619.91;5013795;28;22957;-59
2024/01/24 03:03:48;;;;;;;9.45;7.57;;;;;;;19.33;36.98;102613.66;5015774;28;20050;-59
2024/01/24 03:06:15;;;;;;;8.10;7.30;;;;;;;19.33;37.13;102618.19;5033079;28;20407;-59
2024/01/24 03:08:57;;;;;;;8.05;7.25;;;;;;;19.32;37.18;102600.31;5023395;28;20507;-59
2024/01/24 03:11:24;;;;;;;8.55;7.50;;;;;;;19.32;37.07;102597.63;5023677;28;20396;-59
2024/01/24 03:13:52;;;;;;;8.98;7.75;;;;;;;19.32;37.13;102595.78;5033050;28;20056;-59
2024/01/24 03:16:19;;;;;;;9.32;7.32;;;;;;;19.31;37.14;102586.00;5022224;28;20045;-59
2024/01/24 03:18:47;;;;;;;10.38;7.90;;;;;;;19.30;37.13;102584.28;5027124;28;20050;-59
2024/01/24 03:21:17;;;;;;;9.60;7.60;;;;;;;19.30;37.14;102596.88;5018897;28;20053;-58
2024/01/24 03:23:45;;;;;;;9.00;7.53;;;;;;;19.30;37.05;102605.78;5017350;28;20046;-58
2024/01/24 03:26:16;;;;;;;8.30;7.15;;;;;;;19.30;37.05;102602.22;5029793;28;20523;-59
2024/01/24 03:28:43;;;;;;;8.75;7.85;;;;;;;19.30;37.20;102602.22;5026481;28;20056;-60
2024/01/24 03:31:11;;;;;;;7.68;6.88;;;;;;;19.28;36.95;102602.31;5017286;28;20054;-60
2024/01/24 03:33:38;;;;;;;9.77;8.05;;;;;;;19.29;37.13;102601.38;5022077;28;20052;-59
2024/01/24 03:36:06;;;;;;;8.55;6.70;;;;;;;19.29;37.21;102584.41;5022103;28;20045;-59
2024/01/24 03:38:34;;;;;;;8.75;6.80;;;;;;;19.28;37.15;102588.88;5021167;28;20060;-59
2024/01/24 03:41:01;;;;;;;8.27;7.32;;;;;;;19.27;37.19;102582.63;5029791;28;20049;-58
2024/01/24 03:43:29;;;;;;;9.05;7.65;;;;;;;19.26;37.15;102575.53;5029243;28;20046;-59
2024/01/24 03:45:56;;;;;;;8.68;7.43;;;;;;;19.26;37.17;102564.81;5018390;28;20046;-59
2024/01/24 03:48:24;;;;;;;8.18;7.38;;;;;;;19.25;37.02;102573.81;5017975;28;20046;-59
2024/01/24 03:50:51;;;;;;;9.38;7.38;;;;;;;19.25;37.10;102575.66;5029492;28;20067;-59
2024/01/24 03:53:18;;;;;;;7.82;7.03;;;;;;;19.25;36.94;102589.94;5021245;28;20377;-59
2024/01/24 03:55:46;;;;;;;8.75;7.03;;;;;;;19.26;36.97;102598.84;5018095;28;20396;-59
2024/01/24 03:58:13;;;;;;;8.20;7.15;;;;;;;19.26;37.09;102606.91;5025960;28;20475;-60
2024/01/24 04:00:41;;;;;;;7.68;6.88;;;;;;;19.25;36.91;102598.00;5032373;28;20064;-60
2024/01/24 04:03:09;;;;;;;7.60;6.20;;;;;;;19.26;36.96;102596.16;5011515;28;20559;-60
2024/01/24 04:05:37;;;;;;;7.38;6.28;;;;;;;19.26;37.09;102602.41;5015926;28;20077;-59
2024/01/24 04:08:05;;;;;;;7.88;7.07;;;;;;;19.25;36.97;102619.47;5028515;28;20042;-58
2024/01/24 04:10:32;;;;;;;8.07;7.22;;;;;;;19.26;37.04;102607.78;5021222;28;20046;-58
2024/01/24 04:12:59;;;;;;;7.88;7.07;;;;;;;19.25;36.91;102589.94;5013244;28;20053;-58
2024/01/24 04:15:27;;;;;;;7.63;6.65;;;;;;;19.25;36.91;102589.94;5047408;28;20053;-58
2024/01/24 04:17:55;;;;;;;8.75;7.85;;;;;;;19.25;36.97;102600.69;5033523;28;20459;-58
2024/01/24 04:20:22;;;;;;;7.60;6.22;;;;;;;19.25;36.95;102589.94;5021117;28;20042;-58
2024/01/24 04:22:49;;;;;;;7.95;7.10;;;;;;;19.24;37.03;102582.84;5017113;28;20415;-58
2024/01/24 04:25:17;;;;;;;8.20;6.55;;;;;;;19.23;36.94;102582.91;5017507;28;20054;-58
2024/01/24 04:27:44;;;;;;;8.35;6.90;;;;;;;19.22;37.10;102595.47;5017194;28;20057;-58
2024/01/24 04:30:12;;;;;;;8.20;7.10;;;;;;;19.23;37.00;102599.88;5026680;28;20064;-58
2024/01/24 04:32:40;;;;;;;7.32;6.63;;;;;;;19.22;36.92;102619.63;5016973;28;20068;-58
2024/01/24 04:35:08;;;;;;;7.93;6.40;;;;;;;19.22;36.85;102614.28;5017052;28;20042;-58
2024/01/24 04:37:35;;;;;;;7.30;6.60;;;;;;;19.22;36.92;102608.91;5016971;28;20042;-59
2024/01/24 04:40:03;;;;;;;8.90;6.85;;;;;;;19.22;36.97;102608.91;5027671;28;20060;-59
2024/01/24 04:42:31;;;;;;;7.28;6.47;;;;;;;19.22;36.97;102594.63;5016809;28;20052;-59
2024/01/24 04:44:58;;;;;;;7.07;6.35;;;;;;;19.21;37.06;102584.84;5028519;28;20053;-59
2024/01/24 04:47:25;;;;;;;6.85;6.03;;;;;;;19.21;36.98;102592.88;5016568;28;20050;-58
2024/01/24 04:49:53;;;;;;;8.20;7.20;;;;;;;19.21;37.06;102590.22;5015667;28;20058;-59
2024/01/24 04:52:21;;;;;;;8.15;7.13;;;;;;;19.20;37.03;102583.97;5024380;28;20488;-59
2024/01/24 04:54:48;;;;;;;7.57;6.13;;;;;;;19.20;37.00;102586.66;5027940;28;20050;-59
2024/01/24 04:57:15;;;;;;;7.80;6.60;;;;;;;19.20;37.20;102575.03;5024809;28;20483;-58
2024/01/24 04:59:43;;;;;;;7.18;5.85;;;;;;;19.19;37.10;102567.94;5016528;28;20227;-58
2024/01/24 05:02:22;;;;;;;7.10;6.40;;;;;;;19.18;37.23;102571.56;5012215;28;20042;-58
2024/01/24 05:04:50;;;;;;;7.47;6.72;;;;;;;19.17;37.13;102576.09;5016657;28;20050;-58
2024/01/24 05:07:17;;;;;;;8.73;6.88;;;;;;;19.17;37.08;102564.50;5029941;28;20384;-59
2024/01/24 05:09:45;;;;;;;8.48;7.05;;;;;;;19.16;37.21;102569.00;5023751;28;20046;-59
2024/01/24 05:12:12;;;;;;;6.65;5.93;;;;;;;19.16;37.24;102571.69;5035017;28;20057;-59
2024/01/24 05:14:40;;;;;;;9.13;6.65;;;;;;;19.16;37.21;102571.69;5025401;28;20053;-59
2024/01/24 05:17:07;;;;;;;7.60;6.60;;;;;;;19.14;37.25;102557.47;5026772;28;20042;-59
2024/01/24 05:19:35;;;;;;;7.57;6.22;;;;;;;19.14;37.24;102556.59;5033462;28;20042;-58
2024/01/24 05:22:03;;;;;;;7.10;6.40;;;;;;;19.13;37.17;102547.69;5034774;28;20045;-58
2024/01/24 05:24:30;;;;;;;7.28;6.03;;;;;;;19.12;37.25;102567.44;5025449;28;20046;-58
2024/01/24 05:26:57;;;;;;;6.47;5.82;;;;;;;19.12;37.24;102571.91;5026962;28;20435;-58
2024/01/24 05:29:25;;;;;;;7.15;6.32;;;;;;;19.13;37.26;102561.09;5031368;28;20057;-59
2024/01/24 05:31:53;;;;;;;7.70;5.93;;;;;;;19.13;37.14;102552.19;5022877;28;20049;-59
2024/01/24 05:34:20;;;;;;;7.40;5.30;;;;;;;19.12;37.19;102554.03;5029834;28;20052;-59
2024/01/24 05:36:48;;;;;;;7.80;6.75;;;;;;;19.12;37.23;102551.34;5024237;28;20046;-59
2024/01/24 05:39:15;;;;;;;6.97;5.93;;;;;;;19.12;37.26;102551.34;5032832;28;20034;-58
2024/01/24 05:41:43;;;;;;;6.93;5.97;;;;;;;19.12;37.31;102562.06;5023361;28;20049;-58
2024/01/24 05:44:11;;;;;;;7.63;5.97;;;;;;;19.14;37.42;102561.97;5030335;28;20053;-58
2024/01/24 05:46:38;;;;;;;7.90;5.97;;;;;;;19.15;37.21;102569.94;5029221;28;20056;-58
2024/01/24 05:49:06;;;;;;;6.03;5.43;;;;;;;19.15;37.35;102561.88;5023727;28;20056;-58
2024/01/24 05:51:33;;;;;;;7.13;5.95;;;;;;;19.14;37.55;102548.53;5022095;28;20060;-58
2024/01/24 05:54:01;;;;;;;6.18;5.55;;;;;;;19.13;37.45;102541.47;5025150;28;20061;-58
2024/01/24 05:56:28;;;;;;;6.95;6.10;;;;;;;19.13;37.56;102546.81;5025898;28;20076;-58
2024/01/24 05:58:55;;;;;;;7.47;5.78;;;;;;;19.12;37.44;102539.69;5033086;28;20046;-58
2024/01/24 06:01:23;;;;;;;6.72;6.03;;;;;;;19.12;37.45;102537.03;5023573;28;20045;-59
2024/01/24 06:03:50;;;;;;;6.82;5.57;;;;;;;19.11;37.39;102535.28;5024906;28;20041;-59
2024/01/24 06:06:18;;;;;;;8.75;6.50;;;;;;;19.10;37.41;102526.38;5014689;28;20049;-59
2024/01/24 06:08:46;;;;;;;6.05;5.45;;;;;;;19.10;37.48;102529.06;5032130;28;20089;-58
2024/01/24 06:11:14;;;;;;;6.20;5.55;;;;;;;19.10;37.53;102528.22;5022450;28;20054;-58
2024/01/24 06:13:42;;;;;;;7.03;5.70;;;;;;;19.09;37.43;102519.28;5033033;28;20057;-58
2024/01/24 06:16:09;;;;;;;6.65;5.50;;;;;;;19.10;37.57;102538.94;5030422;28;20045;-58
2024/01/24 06:18:37;;;;;;;7.03;5.88;;;;;;;19.10;37.69;102538.94;5022907;28;20045;-58
2024/01/24 06:21:04;;;;;;;6.05;5.47;;;;;;;19.09;37.63;102537.22;5033154;28;20041;-58
2024/01/24 06:23:31;;;;;;;7.28;5.55;;;;;;;19.09;37.48;102546.13;5024206;28;20052;-58
2024/01/24 06:25:59;;;;;;;7.60;6.13;;;;;;;19.08;37.50;102536.34;5034670;28;20380;-58
2024/01/24 06:28:26;;;;;;;6.50;5.60;;;;;;;19.09;37.70;102532.72;5022146;28;20042;-59
2024/01/24 06:30:53;;;;;;;6.20;5.55;;;;;;;19.08;37.59;102512.19;5033006;28;20503;-59
2024/01/24 06:33:21;;;;;;;6.43;5.75;;;;;;;19.09;37.62;102513.06;5023722;28;20052;-59
2024/01/24 06:35:49;;;;;;;6.90;6.15;;;;;;;19.08;37.85;102506.84;5024582;28;20049;-59
2024/01/24 06:38:16;;;;;;;6.72;5.25;;;;;;;19.07;37.77;102531.91;5028117;28;20041;-59
2024/01/24 06:40:43;;;;;;;6.18;5.00;;;;;;;19.07;37.83;102539.97;5022067;28;20056;-59
2024/01/24 06:43:12;;;;;;;7.07;5.47;;;;;;;19.08;37.69;102539.03;5029029;28;20046;-59
2024/01/24 06:45:39;;;;;;;5.70;5.05;;;;;;;19.07;37.72;102542.66;5027767;28;20050;-59
2024/01/24 06:48:07;;;;;;;7.13;6.43;;;;;;;19.07;37.82;102548.03;5021955;28;20057;-59
2024/01/24 06:50:35;;;;;;;5.95;5.35;;;;;;;19.06;37.65;102546.31;5032390;28;20069;-59
2024/01/24 06:53:03;;;;;;;6.93;5.53;;;;;;;19.03;37.65;102544.66;5021743;28;20041;-59
2024/01/24 06:55:31;;;;;;;6.85;5.22;;;;;;;19.03;37.68;102546.47;5024563;28;20046;-58
2024/01/24 06:57:58;;;;;;;8.55;5.47;;;;;;;19.04;37.93;102542.84;5032077;28;20049;-58
2024/01/24 07:00:27;;;;;;;7.15;6.07;;;;;;;19.03;37.75;102544.66;5021870;28;20046;-58
2024/01/24 07:02:56;;;;;;;5.80;5.15;;;;;;;19.03;37.88;102546.47;5028197;28;20424;-58
2024/01/24 07:05:23;;;;;;;6.63;5.32;;;;;;;19.03;37.66;102551.84;5013356;28;20061;-58
2024/01/24 07:07:50;;;;;;;7.13;5.72;;;;;;;19.02;37.89;102547.44;5015362;28;20412;-58
2024/01/24 07:10:18;;;;;;;7.22;5.53;;;;;;;19.00;37.60;102536.81;5031321;28;20395;-59
2024/01/24 07:12:45;;;;;;;7.28;5.43;;;;;;;18.99;37.77;102537.72;5023519;28;20053;-58
2024/01/24 07:15:15;;;;;;;6.00;5.30;;;;;;;18.99;37.68;102542.22;5025075;28;20046;-58
2024/01/24 07:17:44;;;;;;;6.97;5.55;;;;;;;19.00;37.82;102552.91;5020645;28;20046;-58
2024/01/24 07:20:13;;;;;;;7.25;5.50;;;;;;;18.99;37.78;102561.88;5031176;28;20042;-58
2024/01/24 07:22:40;;;;;;;7.57;5.88;;;;;;;18.98;37.92;102576.25;5017163;28;20050;-57
2024/01/24 07:25:08;;;;;;;6.55;5.28;;;;;;;18.97;38.10;102563.81;5024843;28;20483;-58
2024/01/24 07:27:35;;;;;;;6.30;5.28;;;;;;;18.98;37.91;102570.03;5021048;28;20053;-58
2024/01/24 07:30:04;;;;;;;7.35;5.97;;;;;;;18.99;37.80;102567.25;5017554;28;20060;-58
2024/01/24 07:32:32;;;;;;;6.45;5.00;;;;;;;19.00;37.75;102568.16;5017556;28;20488;-58
2024/01/24 07:34:59;;;;;;;10.07;6.05;;;;;;;19.00;38.01;102571.69;5022519;28;20042;-58
2024/01/24 07:37:27;;;;;;;8.65;6.50;;;;;;;19.00;38.17;102562.78;5045782;28;20061;-57
2024/01/24 07:39:55;;;;;;;10.10;6.68;;;;;;;18.97;38.03;102557.56;5023805;28;20046;-58
2024/01/24 07:42:22;;;;;;;7.40;6.30;;;;;;;18.96;37.88;102554.03;5017109;28;20056;-58
2024/01/24 07:44:50;;;;;;;7.57;6.30;;;;;;;18.95;37.93;102562.16;5016980;28;20046;-58
2024/01/24 07:47:21;;;;;;;7.85;6.10;;;;;;;18.96;37.79;102551.34;5019115;28;20057;-56
2024/01/24 07:49:48;;;;;;;9.02;6.03;;;;;;;18.97;38.02;102557.56;5020981;28;20045;-57
2024/01/24 07:52:17;;;;;;;8.32;6.47;;;;;;;18.97;38.07;102566.50;5017444;28;20049;-57
2024/01/24 07:55:03;;;;;;;6.90;5.65;;;;;;;18.97;38.03;102574.53;5027537;28;20407;-57
2024/01/24 07:57:31;;;;;;;6.60;5.90;;;;;;;18.98;38.03;102570.91;5018449;28;20045;-58
2024/01/24 07:59:58;;;;;;;8.10;5.72;;;;;;;18.98;37.98;102562.84;5016875;28;20046;-58
2024/01/24 08:02:26;;;;;;;7.97;5.88;;;;;;;18.98;37.94;102570.03;5016341;28;20061;-58
2024/01/24 08:04:53;;;;;;;8.77;6.13;;;;;;;18.99;37.85;102563.72;5016201;28;20049;-58
2024/01/24 08:07:21;;;;;;;8.38;6.13;;;;;;;19.00;37.93;102573.50;5014470;28;20396;-58
2024/01/24 08:09:49;;;;;;;8.65;6.90;;;;;;;19.01;37.96;102577.91;5016011;28;20396;-57
2024/01/24 08:12:16;;;;;;;7.07;6.10;;;;;;;19.02;38.29;102567.09;5016103;28;20423;-57
2024/01/24 08:14:44;;;;;;;7.43;6.22;;;;;;;19.05;38.38;102570.56;5026386;28;20048;-57
2024/01/24 08:17:11;;;;;;;8.48;6.30;;;;;;;19.05;38.33;102563.38;5028940;28;20056;-59
2024/01/24 08:19:38;;;;;;;7.80;6.05;;;;;;;19.07;38.36;102574.88;5016153;28;20048;-58
2024/01/24 08:22:06;;;;;;;8.75;6.82;;;;;;;19.09;38.45;102578.34;5026209;28;20507;-58
2024/01/24 08:24:33;;;;;;;8.55;6.32;;;;;;;19.10;38.44;102585.44;5016706;28;20049;-58
2024/01/24 08:27:02;;;;;;;7.65;6.65;;;;;;;19.12;38.41;102577.28;5030526;28;20411;-58
2024/01/24 08:29:30;;;;;;;7.97;6.40;;;;;;;19.11;38.43;102571.06;5011671;28;20514;-58
2024/01/24 08:32:04;;;;;;;8.52;6.28;;;;;;;19.12;38.28;102571.91;5024328;28;20045;-58
2024/01/24 08:34:35;;;;;;;7.30;6.50;;;;;;;19.13;38.43;102579.03;5019373;28;20415;-57
2024/01/24 08:37:03;;;;;;;6.47;5.47;;;;;;;19.11;38.39;102579.09;5016768;28;20519;-58
2024/01/24 08:39:34;;;;;;;8.43;6.80;;;;;;;19.13;38.36;102574.53;5024236;28;20108;-59
2024/01/24 08:42:04;;;;;;;7.72;5.90;;;;;;;19.14;38.26;102556.59;5028190;28;20050;-59
2024/01/24 08:44:32;;;;;;;9.43;6.85;;;;;;;19.16;38.55;102527.84;5019221;28;20075;-59
2024/01/24 08:46:59;;;;;;;7.05;6.20;;;;;;;19.16;38.57;102536.78;5027520;28;20056;-58
2024/01/24 08:49:27;;;;;;;7.13;6.05;;;;;;;19.17;38.35;102545.69;5023810;28;20053;-60
2024/01/24 08:51:56;;;;;;;8.25;6.68;;;;;;;19.19;38.49;102568.78;5019359;28;20054;-61
2024/01/24 08:54:24;;;;;;;8.18;6.35;;;;;;;19.19;38.37;102581.34;5026579;28;20045;-59
2024/01/24 08:56:52;;;;;;;8.32;6.47;;;;;;;19.19;38.35;102573.31;5027013;28;20045;-59
2024/01/24 08:59:19;;;;;;;9.30;5.93;;;;;;;19.19;38.13;102567.94;5024273;28;20049;-57
2024/01/24 09:01:46;;;;;;;8.05;6.50;;;;;;;19.17;38.15;102567.16;5019385;28;20045;-56
2024/01/24 09:04:15;;;;;;;9.15;6.00;;;;;;;19.18;38.20;102576.94;5016494;28;20396;-57
2024/01/24 09:06:43;;;;;;;8.43;6.35;;;;;;;19.18;37.94;102576.94;5026183;28;20048;-57
2024/01/24 09:09:13;;;;;;;9.60;6.47;;;;;;;19.19;37.84;102578.66;5012286;28;20042;-58
2024/01/24 09:11:42;;;;;;;9.05;6.63;;;;;;;19.21;37.88;102566.91;5014762;28;20393;-59
2024/01/24 09:14:24;;;;;;;11.52;10.07;;;;;;;19.18;37.44;102567.06;5014887;28;20049;-59
2024/01/24 09:16:53;;;;;;;12.38;9.90;;;;;;;19.17;36.91;102564.50;5015395;28;20054;-59
2024/01/24 09:19:21;;;;;;;13.35;9.75;;;;;;;19.16;36.63;102579.72;5014858;28;20057;-59
2024/01/24 09:21:50;;;;;;;10.90;9.68;;;;;;;19.14;36.27;102565.53;5016759;28;20042;-59
2024/01/24 09:24:18;;;;;;;12.70;9.98;;;;;;;19.13;35.84;102558.44;5014737;28;20041;-59
2024/01/24 09:26:45;;;;;;;12.10;10.40;;;;;;;19.13;35.69;102568.31;5014485;28;20516;-59
2024/01/24 09:29:12;;;;;;;12.02;10.05;;;;;;;19.12;35.46;102566.53;5017148;28;20053;-59
2024/01/24 09:31:43;;;;;;;11.93;9.82;;;;;;;19.13;35.25;102562.94;5016946;28;20050;-59
2024/01/24 09:34:14;;;;;;;11.35;9.43;;;;;;;19.12;34.95;102561.19;5015094;28;20053;-59
2024/01/24 09:36:42;;;;;;;11.20;9.20;;;;;;;19.11;34.97;102567.50;5022198;28;20057;-59
2024/01/24 09:39:09;;;;;;;13.32;9.35;;;;;;;19.12;35.20;102571.91;5029633;28;20056;-59
2024/01/24 09:41:41;;;;;;;9.85;8.85;;;;;;;19.11;35.36;102571.06;5017476;28;20052;-58
2024/01/24 09:44:11;;;;;;;11.82;8.65;;;;;;;19.13;35.50;102566.47;5013030;28;20053;-59
2024/01/24 09:46:42;;;;;;;10.85;8.30;;;;;;;19.15;35.44;102558.31;5014660;28;20149;-59
2024/01/24 09:49:14;;;;;;;11.82;9.02;;;;;;;19.15;35.40;102553.81;5026965;28;20499;-59
2024/01/24 09:51:43;;;;;;;10.25;8.27;;;;;;;19.15;35.41;102544.91;5018338;28;20096;-59
2024/01/24 09:54:12;;;;;;;10.23;7.60;;;;;;;19.16;35.55;102550.19;5018174;28;20511;-59
2024/01/24 09:56:40;;;;;;;8.52;7.47;;;;;;;19.17;35.74;102543.88;5018346;28;20046;-59
2024/01/24 09:59:08;;;;;;;8.27;6.72;;;;;;;19.19;35.83;102541.94;5020026;28;20061;-60
2024/01/24 10:01:38;;;;;;;9.40;6.93;;;;;;;19.20;36.03;102529.38;5017788;28;20050;-59
2024/01/24 10:04:07;;;;;;;7.93;6.57;;;;;;;19.22;36.02;102539.09;5017820;28;20072;-59
2024/01/24 10:06:38;;;;;;;9.10;7.13;;;;;;;19.22;36.11;102528.34;5017796;28;20064;-59
2024/01/24 10:09:06;;;;;;;8.43;7.22;;;;;;;19.24;36.13;102534.50;5014127;28;20045;-59
2024/01/24 10:11:35;;;;;;;7.75;6.47;;;;;;;19.23;35.90;102507.72;5017430;28;20050;-59
2024/01/24 10:14:02;;;;;;;8.82;6.57;;;;;;;19.22;36.17;102509.56;5017513;28;20046;-59
2024/01/24 10:16:30;;;;;;;7.03;6.22;;;;;;;19.22;36.03;102516.75;5029316;28;20057;-57
2024/01/24 10:18:57;;;;;;;8.48;6.82;;;;;;;19.22;35.97;102501.50;5020445;28;20452;-48
2024/01/24 10:21:25;;;;;;;13.32;9.48;;;;;;;19.20;35.42;102492.69;5017156;28;20070;-47
2024/01/24 10:23:59;;;;;;;10.45;9.35;;;;;;;19.17;35.42;102487.50;5017648;28;20046;-48
2024/01/24 10:26:26;;;;;;;8.90;8.00;;;;;;;19.15;35.35;102481.34;5031525;28;20053;-50
2024/01/24 10:28:54;;;;;;;9.00;7.63;;;;;;;19.15;35.58;102470.59;5018627;28;20532;-59
2024/01/24 10:31:23;;;;;;;10.02;7.53;;;;;;;19.16;35.82;102461.59;5029008;28;20050;-59
2024/01/24 10:33:55;;;;;;;7.90;6.38;;;;;;;19.17;35.99;102457.09;5027086;28;20042;-59
2024/01/24 10:36:24;;;;;;;8.50;7.45;;;;;;;19.17;36.05;102449.03;5020393;28;20042;-59
2024/01/24 10:39:00;;;;;;;9.82;7.25;;;;;;;19.18;36.00;102445.41;5020598;28;20388;-49
2024/01/24 10:41:30;;;;;;;9.63;7.63;;;;;;;19.17;35.90;102436.47;5025639;28;20049;-51
2024/01/24 10:44:04;;;;;;;7.90;6.82;;;;;;;19.16;36.02;102429.38;5029000;28;20054;-52
2024/01/24 10:46:33;;;;;;;7.40;6.60;;;;;;;19.16;36.25;102418.66;5018594;28;20053;-51
2024/01/24 10:49:02;;;;;;;8.80;6.25;;;;;;;19.15;36.39;102414.22;5029377;28;20053;-59
2024/01/24 10:51:30;;;;;;;6.13;5.43;;;;;;;19.16;36.41;102429.38;5025991;28;20048;-59
2024/01/24 10:53:58;;;;;;;8.00;5.95;;;;;;;19.17;36.58;102428.44;5031293;28;20472;-59
2024/01/24 10:56:27;;;;;;;7.72;6.43;;;;;;;19.18;36.45;102423.91;5018024;28;20042;-59
2024/01/24 10:59:04;;;;;;;6.90;5.93;;;;;;;19.18;36.59;102418.56;5028301;28;20100;-48
2024/01/24 11:01:32;;;;;;;6.20;5.60;;;;;;;19.18;36.64;102407.81;5027282;28;20041;-49
2024/01/24 11:04:04;;;;;;;6.30;5.68;;;;;;;19.18;36.80;102410.50;5027899;28;20052;-50
2024/01/24 11:06:44;;;;;;;8.18;5.55;;;;;;;19.18;36.63;102410.50;5018944;28;20389;-50
2024/01/24 11:09:38;;;;;;;6.43;5.68;;;;;;;19.16;36.76;102412.38;5020894;28;20057;-59
2024/01/24 11:12:06;;;;;;;6.85;6.10;;;;;;;19.15;36.60;102411.53;5015490;28;20042;-59
2024/01/24 11:14:36;;;;;;;5.80;5.20;;;;;;;19.15;36.74;102411.53;5015594;28;20053;-59
2024/01/24 11:17:05;;;;;;;7.47;5.78;;;;;;;19.14;36.71;102407.13;5016553;28;20045;-48
2024/01/24 11:19:32;;;;;;;5.90;5.25;;;;;;;19.14;36.55;102392.84;5015880;28;20113;-51
2024/01/24 11:22:08;;;;;;;7.40;5.50;;;;;;;19.14;36.71;102393.69;5017581;28;20072;-52
2024/01/24 11:24:52;;;;;;;7.93;6.07;;;;;;;19.13;36.72;102389.31;5024425;28;20053;-53
2024/01/24 11:27:23;;;;;;;7.43;6.20;;;;;;;19.13;36.86;102385.75;5015644;28;20050;-59
2024/01/24 11:29:52;;;;;;;8.20;6.13;;;;;;;19.13;36.82;102380.38;5029346;28;20084;-59